createdAt,value
2018-02-15T00:00:06.163Z,85.81
2018-02-15T00:01:06.215Z,86.19
2018-02-15T00:02:06.268Z,86.29
2018-02-15T00:03:06.320Z,86.10
2018-02-15T00:04:06.371Z,86.38
2018-02-15T00:05:06.424Z,87.04
2018-02-15T00:06:06.478Z,86.76
2018-02-15T00:07:06.528Z,86.85
2018-02-15T00:08:06.583Z,86.76
2018-02-15T00:09:06.633Z,86.94
2018-02-15T00:10:06.686Z,87.04
2018-02-15T00:11:06.738Z,86.47
2018-02-15T00:12:06.795Z,86.47
2018-02-15T00:13:06.842Z,86.76
2018-02-15T00:14:06.896Z,87.04
2018-02-15T00:15:06.951Z,86.57
2018-02-15T00:16:07.001Z,86.47
2018-02-15T00:17:07.051Z,86.94
2018-02-15T00:18:07.105Z,86.85
2018-02-15T00:19:07.155Z,86.85
2018-02-15T00:20:07.221Z,86.76
2018-02-15T00:21:07.262Z,87.13
2018-02-15T00:22:07.314Z,87.23
2018-02-15T00:23:07.368Z,86.66
2018-02-15T00:24:07.423Z,86.85
2018-02-15T00:25:07.471Z,86.66
2018-02-15T00:26:07.524Z,86.47
2018-02-15T00:27:07.574Z,86.19
2018-02-15T00:28:07.665Z,86.57
2018-02-15T00:29:07.681Z,86.80
2018-02-15T00:30:07.736Z,86.19
2018-02-15T00:31:07.785Z,86.10
2018-02-15T00:32:07.839Z,86.52
2018-02-15T00:33:07.891Z,86.23
2018-02-15T00:34:07.944Z,85.91
2018-02-15T00:35:07.996Z,85.91
2018-02-15T00:36:08.048Z,85.43
2018-02-15T00:37:08.101Z,85.47
2018-02-15T00:38:08.153Z,86.04
2018-02-15T00:39:08.207Z,85.85
2018-02-15T00:40:08.257Z,86.14
2018-02-15T00:41:08.312Z,85.81
2018-02-15T00:42:08.367Z,85.95
2018-02-15T00:43:08.416Z,86.38
2018-02-15T00:44:08.669Z,86.04
2018-02-15T00:45:08.522Z,86.19
2018-02-15T00:46:08.575Z,86.14
2018-02-15T00:47:08.631Z,85.85
2018-02-15T00:48:08.680Z,85.85
2018-02-15T00:49:08.731Z,85.85
2018-02-15T00:50:08.784Z,85.85
2018-02-15T00:51:08.836Z,86.14
2018-02-15T00:52:08.891Z,86.04
2018-02-15T00:53:08.947Z,86.42
2018-02-15T00:54:08.995Z,86.04
2018-02-15T00:55:09.050Z,86.61
2018-02-15T00:56:09.100Z,86.52
2018-02-15T00:57:09.155Z,86.23
2018-02-15T00:58:09.209Z,86.04
2018-02-15T00:59:09.258Z,86.23
2018-02-15T01:00:09.312Z,86.33
2018-02-15T01:01:09.365Z,86.61
2018-02-15T01:02:09.418Z,86.90
2018-02-15T01:03:09.470Z,86.99
2018-02-15T01:04:09.523Z,86.90
2018-02-15T01:05:09.577Z,87.37
2018-02-15T01:06:09.630Z,87.84
2018-02-15T01:07:09.683Z,87.55
2018-02-15T01:08:09.735Z,86.99
2018-02-15T01:09:09.788Z,86.80
2018-02-15T01:10:09.840Z,86.52
2018-02-15T01:11:09.895Z,86.90
2018-02-15T01:12:09.947Z,86.99
2018-02-15T01:13:09.999Z,86.99
2018-02-15T01:14:10.053Z,86.04
2018-02-15T01:15:10.105Z,86.14
2018-02-15T01:16:10.158Z,86.71
2018-02-15T01:17:10.212Z,86.90
2018-02-15T01:18:10.266Z,86.61
2018-02-15T01:19:10.317Z,85.38
2018-02-15T01:20:10.372Z,85.66
2018-02-15T01:21:10.423Z,85.28
2018-02-15T01:22:10.478Z,85.00
2018-02-15T01:23:10.530Z,85.38
2018-02-15T01:24:10.583Z,85.28
2018-02-15T01:25:10.635Z,85.76
2018-02-15T01:26:10.690Z,85.66
2018-02-15T01:27:10.742Z,85.76
2018-02-15T01:28:10.795Z,85.47
2018-02-15T01:29:10.848Z,86.14
2018-02-15T01:30:10.902Z,86.14
2018-02-15T01:31:10.952Z,85.85
2018-02-15T01:32:11.007Z,86.04
2018-02-15T01:33:11.064Z,86.33
2018-02-15T01:34:11.112Z,85.95
2018-02-15T01:35:11.165Z,86.23
2018-02-15T01:36:11.219Z,85.85
2018-02-15T01:37:11.270Z,86.23
2018-02-15T01:38:11.323Z,85.38
2018-02-15T01:39:11.376Z,85.57
2018-02-15T01:40:11.429Z,85.19
2018-02-15T01:41:11.482Z,85.28
2018-02-15T01:42:11.535Z,85.85
2018-02-15T01:43:11.590Z,85.66
2018-02-15T01:44:11.640Z,85.66
2018-02-15T01:45:11.694Z,84.53
2018-02-15T01:46:11.747Z,84.25
2018-02-15T01:47:11.803Z,83.11
2018-02-15T01:48:11.852Z,83.21
2018-02-15T01:49:11.906Z,83.97
2018-02-15T01:50:11.959Z,83.59
2018-02-15T01:51:12.011Z,83.78
2018-02-15T01:52:12.074Z,83.78
2018-02-15T01:53:12.116Z,84.34
2018-02-15T01:54:12.170Z,84.16
2018-02-15T01:55:12.222Z,84.44
2018-02-15T01:56:12.277Z,84.44
2018-02-15T01:57:12.329Z,84.44
2018-02-15T01:58:12.382Z,84.16
2018-02-15T01:59:12.434Z,84.25
2018-02-15T02:00:12.488Z,83.63
2018-02-15T02:01:12.541Z,82.97
2018-02-15T02:02:12.595Z,83.30
2018-02-15T02:03:12.646Z,83.91
2018-02-15T02:04:12.700Z,83.91
2018-02-15T02:05:13.004Z,83.97
2018-02-15T02:06:12.808Z,83.87
2018-02-15T02:07:12.859Z,83.87
2018-02-15T02:08:12.913Z,84.72
2018-02-15T02:09:12.965Z,84.34
2018-02-15T02:10:13.018Z,83.59
2018-02-15T02:11:13.071Z,83.97
2018-02-15T02:12:13.124Z,84.16
2018-02-15T02:13:13.177Z,84.06
2018-02-15T02:14:13.232Z,83.49
2018-02-15T02:15:13.283Z,83.78
2018-02-15T02:16:13.336Z,83.68
2018-02-15T02:17:13.390Z,83.87
2018-02-15T02:18:13.442Z,83.97
2018-02-15T02:19:13.495Z,82.50
2018-02-15T02:20:13.548Z,80.69
2018-02-15T02:21:13.602Z,81.55
2018-02-15T02:22:13.656Z,82.02
2018-02-15T02:23:13.707Z,82.31
2018-02-15T02:24:13.761Z,81.36
2018-02-15T02:25:13.815Z,81.07
2018-02-15T02:26:13.868Z,82.02
2018-02-15T02:27:13.920Z,81.26
2018-02-15T02:28:13.973Z,79.75
2018-02-15T02:29:14.027Z,78.52
2018-02-15T02:30:14.081Z,78.80
2018-02-15T02:31:14.132Z,79.09
2018-02-15T02:32:14.186Z,78.90
2018-02-15T02:33:14.239Z,77.48
2018-02-15T02:34:14.292Z,77.10
2018-02-15T02:35:14.350Z,77.29
2018-02-15T02:36:14.401Z,79.66
2018-02-15T02:37:14.453Z,80.88
2018-02-15T02:38:14.507Z,81.64
2018-02-15T02:39:14.560Z,82.31
2018-02-15T02:40:14.614Z,82.02
2018-02-15T02:41:14.666Z,81.45
2018-02-15T02:42:14.720Z,81.17
2018-02-15T02:43:14.773Z,80.51
2018-02-15T02:44:14.827Z,80.13
2018-02-15T02:45:14.879Z,78.52
2018-02-15T02:46:14.933Z,77.20
2018-02-15T02:47:14.985Z,77.48
2018-02-15T02:48:15.039Z,78.33
2018-02-15T02:49:15.092Z,79.85
2018-02-15T02:50:15.147Z,80.60
2018-02-15T02:51:15.449Z,80.13
2018-02-15T02:52:15.252Z,79.94
2018-02-15T02:53:15.306Z,75.72
2018-02-15T02:54:15.360Z,75.72
2018-02-15T02:55:15.412Z,74.11
2018-02-15T02:56:15.467Z,73.16
2018-02-15T02:57:15.520Z,73.83
2018-02-15T02:58:15.574Z,73.07
2018-02-15T02:59:15.626Z,73.54
2018-02-15T03:00:15.681Z,75.05
2018-02-15T03:01:15.735Z,74.87
2018-02-15T03:02:15.790Z,73.83
2018-02-15T03:03:15.840Z,74.11
2018-02-15T03:04:15.895Z,74.21
2018-02-15T03:05:15.947Z,74.40
2018-02-15T03:06:16.002Z,76.00
2018-02-15T03:07:16.056Z,77.42
2018-02-15T03:08:16.108Z,75.81
2018-02-15T03:09:16.163Z,74.40
2018-02-15T03:10:16.217Z,75.72
2018-02-15T03:11:16.272Z,76.67
2018-02-15T03:12:16.330Z,77.04
2018-02-15T03:13:16.378Z,76.10
2018-02-15T03:14:16.431Z,76.19
2018-02-15T03:15:16.486Z,76.00
2018-02-15T03:16:16.538Z,74.49
2018-02-15T03:17:16.592Z,73.83
2018-02-15T03:18:16.646Z,74.30
2018-02-15T03:19:16.700Z,72.78
2018-02-15T03:20:16.753Z,71.55
2018-02-15T03:21:16.808Z,70.45
2018-02-15T03:22:16.862Z,70.42
2018-02-15T03:23:16.916Z,70.23
2018-02-15T03:24:17.224Z,68.46
2018-02-15T03:25:17.023Z,67.14
2018-02-15T03:26:17.078Z,67.33
2018-02-15T03:27:17.131Z,68.46
2018-02-15T03:28:17.186Z,68.94
2018-02-15T03:29:17.239Z,68.56
2018-02-15T03:30:17.293Z,68.75
2018-02-15T03:31:17.347Z,68.75
2018-02-15T03:32:17.400Z,71.08
2018-02-15T03:33:17.454Z,71.84
2018-02-15T03:34:17.510Z,72.60
2018-02-15T03:35:17.560Z,73.92
2018-02-15T03:36:17.615Z,72.97
2018-02-15T03:37:17.671Z,71.93
2018-02-15T03:38:17.725Z,72.41
2018-02-15T03:39:17.777Z,72.03
2018-02-15T03:40:17.832Z,71.93
2018-02-15T03:41:17.888Z,71.40
2018-02-15T03:42:18.191Z,70.83
2018-02-15T03:43:17.993Z,70.32
2018-02-15T03:44:18.048Z,70.74
2018-02-15T03:45:18.102Z,70.64
2018-02-15T03:46:18.156Z,70.55
2018-02-15T03:47:18.209Z,70.74
2018-02-15T03:48:18.515Z,71.12
2018-02-15T03:49:18.318Z,70.83
2018-02-15T03:50:18.373Z,71.69
2018-02-15T03:51:18.427Z,72.06
2018-02-15T03:52:18.481Z,72.53
2018-02-15T03:53:18.685Z,72.92
2018-02-15T03:54:18.636Z,73.68
2018-02-15T03:55:18.643Z,73.77
2018-02-15T03:56:18.717Z,74.11
2018-02-15T03:57:18.752Z,74.40
2018-02-15T03:58:18.806Z,74.58
2018-02-15T03:59:18.887Z,75.43
2018-02-15T04:00:18.914Z,75.81
2018-02-15T04:01:18.969Z,76.10
2018-02-15T04:02:19.041Z,76.76
2018-02-15T04:03:19.076Z,76.67
2018-02-15T04:04:19.130Z,77.51
2018-02-15T04:05:19.184Z,78.27
2018-02-15T04:06:19.239Z,79.03
2018-02-15T04:07:19.292Z,79.69
2018-02-15T04:08:19.347Z,80.26
2018-02-15T04:09:19.401Z,81.68
2018-02-15T04:10:19.456Z,82.15
2018-02-15T04:11:19.509Z,83.39
2018-02-15T04:12:19.563Z,83.76
2018-02-15T04:13:19.618Z,84.52
2018-02-15T04:14:19.671Z,84.52
2018-02-15T04:15:19.725Z,85.19
2018-02-15T04:16:19.780Z,86.66
2018-02-15T04:17:19.836Z,86.75
2018-02-15T04:18:19.931Z,87.41
2018-02-15T04:19:19.942Z,87.98
2018-02-15T04:20:19.996Z,89.40
2018-02-15T04:21:20.053Z,89.31
2018-02-15T04:22:20.104Z,89.87
2018-02-15T04:23:20.157Z,89.97
2018-02-15T04:24:20.212Z,90.06
2018-02-15T04:25:20.268Z,90.53
2018-02-15T04:26:20.319Z,91.29
2018-02-15T04:27:20.372Z,91.67
2018-02-15T04:28:20.427Z,91.67
2018-02-15T04:29:20.480Z,91.29
2018-02-15T04:30:20.534Z,92.24
2018-02-15T04:31:20.590Z,92.90
2018-02-15T04:32:20.641Z,93.09
2018-02-15T04:33:20.696Z,94.04
2018-02-15T04:34:20.750Z,93.85
2018-02-15T04:35:20.804Z,93.66
2018-02-15T04:36:20.858Z,93.66
2018-02-15T04:37:20.910Z,94.13
2018-02-15T04:38:20.966Z,94.23
2018-02-15T04:39:21.019Z,94.51
2018-02-15T04:40:21.072Z,94.79
2018-02-15T04:41:21.125Z,95.26
2018-02-15T04:42:21.179Z,95.83
2018-02-15T04:43:21.232Z,95.45
2018-02-15T04:44:21.291Z,95.26
2018-02-15T04:45:21.340Z,95.55
2018-02-15T04:46:21.393Z,96.02
2018-02-15T04:47:21.448Z,96.50
2018-02-15T04:48:21.499Z,97.06
2018-02-15T04:49:21.556Z,97.06
2018-02-15T04:50:21.607Z,96.97
2018-02-15T04:51:21.659Z,97.06
2018-02-15T04:52:21.713Z,96.21
2018-02-15T04:53:21.768Z,96.88
2018-02-15T04:54:21.822Z,97.25
2018-02-15T04:55:21.873Z,97.34
2018-02-15T04:56:21.928Z,98.01
2018-02-15T04:57:21.981Z,98.29
2018-02-15T04:58:22.036Z,97.34
2018-02-15T04:59:22.087Z,97.63
2018-02-15T05:00:22.140Z,98.10
2018-02-15T05:01:22.195Z,98.10
2018-02-15T05:02:22.248Z,97.91
2018-02-15T05:03:22.300Z,98.01
2018-02-15T05:04:22.353Z,98.48
2018-02-15T05:05:22.410Z,98.10
2018-02-15T05:06:22.461Z,98.20
2018-02-15T05:07:22.519Z,98.77
2018-02-15T05:08:22.568Z,98.29
2018-02-15T05:09:22.623Z,98.96
2018-02-15T05:10:22.676Z,99.52
2018-02-15T05:11:22.730Z,99.43
2018-02-15T05:12:22.783Z,99.99
2018-02-15T05:13:22.836Z,99.90
2018-02-15T05:14:22.890Z,99.90
2018-02-15T05:15:22.943Z,99.71
2018-02-15T05:16:22.997Z,99.99
2018-02-15T05:17:23.051Z,99.80
2018-02-15T05:18:23.104Z,99.62
2018-02-15T05:19:23.357Z,99.99
2018-02-15T05:20:23.210Z,99.90
2018-02-15T05:21:23.266Z,99.99
2018-02-15T05:22:24.015Z,99.99
2018-02-15T05:23:23.969Z,99.80
2018-02-15T05:24:23.424Z,99.80
2018-02-15T05:25:23.478Z,99.90
2018-02-15T05:26:23.532Z,99.71
2018-02-15T05:27:23.620Z,98.96
2018-02-15T05:28:23.637Z,99.24
2018-02-15T05:29:23.691Z,98.77
2018-02-15T05:30:23.745Z,98.29
2018-02-15T05:31:23.798Z,98.58
2018-02-15T05:32:23.851Z,98.67
2018-02-15T05:33:23.904Z,98.20
2018-02-15T05:34:23.957Z,98.67
2018-02-15T05:35:24.015Z,98.39
2018-02-15T05:36:24.064Z,98.48
2018-02-15T05:37:24.118Z,98.20
2018-02-15T05:38:24.174Z,98.48
2018-02-15T05:39:24.223Z,98.77
2018-02-15T05:40:24.277Z,98.48
2018-02-15T05:41:24.582Z,98.77
2018-02-15T05:42:24.437Z,98.86
2018-02-15T05:43:24.454Z,98.67
2018-02-15T05:44:24.490Z,97.72
2018-02-15T05:45:24.596Z,97.34
2018-02-15T05:46:24.597Z,97.53
2018-02-15T05:47:24.648Z,97.53
2018-02-15T05:48:24.703Z,97.34
2018-02-15T05:49:24.757Z,97.53
2018-02-15T05:50:24.810Z,97.82
2018-02-15T05:51:24.862Z,97.53
2018-02-15T05:52:24.916Z,97.44
2018-02-15T05:53:24.969Z,97.63
2018-02-15T05:54:25.333Z,96.97
2018-02-15T05:55:25.076Z,96.02
2018-02-15T05:56:25.128Z,96.50
2018-02-15T05:57:25.181Z,95.93
2018-02-15T05:58:25.636Z,95.07
2018-02-15T05:59:25.288Z,95.07
2018-02-15T06:00:25.341Z,94.89
2018-02-15T06:01:25.395Z,94.89
2018-02-15T06:02:25.473Z,94.70
2018-02-15T06:03:25.501Z,94.70
2018-02-15T06:04:25.554Z,95.07
2018-02-15T06:05:25.607Z,94.70
2018-02-15T06:06:25.661Z,95.55
2018-02-15T06:07:25.717Z,96.12
2018-02-15T06:08:25.767Z,96.50
2018-02-15T06:09:25.889Z,96.40
2018-02-15T06:10:25.874Z,96.02
2018-02-15T06:11:25.928Z,95.74
2018-02-15T06:12:25.980Z,95.36
2018-02-15T06:13:26.044Z,95.36
2018-02-15T06:14:26.097Z,96.12
2018-02-15T06:15:26.140Z,96.78
2018-02-15T06:16:26.194Z,95.64
2018-02-15T06:17:26.249Z,96.31
2018-02-15T06:18:26.302Z,96.21
2018-02-15T06:19:26.352Z,96.59
2018-02-15T06:20:26.407Z,96.12
2018-02-15T06:21:26.470Z,96.12
2018-02-15T06:22:26.514Z,96.69
2018-02-15T06:23:26.566Z,96.12
2018-02-15T06:24:26.620Z,96.12
2018-02-15T06:25:26.675Z,96.50
2018-02-15T06:26:26.729Z,95.83
2018-02-15T06:27:26.791Z,96.40
2018-02-15T06:28:26.834Z,96.50
2018-02-15T06:29:26.890Z,96.50
2018-02-15T06:30:26.941Z,96.50
2018-02-15T06:31:27.068Z,96.12
2018-02-15T06:32:27.050Z,97.16
2018-02-15T06:33:27.101Z,97.06
2018-02-15T06:34:27.158Z,96.69
2018-02-15T06:35:27.206Z,96.40
2018-02-15T06:36:27.261Z,96.40
2018-02-15T06:37:27.314Z,96.50
2018-02-15T06:38:27.369Z,95.64
2018-02-15T06:39:27.421Z,95.55
2018-02-15T06:40:28.147Z,95.45
2018-02-15T06:41:27.529Z,95.36
2018-02-15T06:42:27.582Z,95.26
2018-02-15T06:43:27.635Z,95.55
2018-02-15T06:44:27.689Z,95.74
2018-02-15T06:45:27.742Z,95.36
2018-02-15T06:46:27.796Z,95.36
2018-02-15T06:47:27.849Z,96.50
2018-02-15T06:48:27.904Z,96.78
2018-02-15T06:49:27.958Z,96.69
2018-02-15T06:50:28.014Z,96.88
2018-02-15T06:51:28.065Z,97.72
2018-02-15T06:52:28.664Z,97.25
2018-02-15T06:53:28.715Z,97.44
2018-02-15T06:54:28.225Z,97.44
2018-02-15T06:55:28.278Z,97.44
2018-02-15T06:56:28.332Z,97.82
2018-02-15T06:57:28.389Z,97.53
2018-02-15T06:58:28.439Z,98.10
2018-02-15T06:59:28.511Z,98.29
2018-02-15T07:00:28.547Z,98.01
2018-02-15T07:01:28.851Z,98.96
2018-02-15T07:02:28.653Z,98.48
2018-02-15T07:03:28.706Z,98.29
2018-02-15T07:04:28.762Z,98.29
2018-02-15T07:05:28.845Z,97.63
2018-02-15T07:06:28.869Z,97.91
2018-02-15T07:07:28.955Z,97.44
2018-02-15T07:08:28.975Z,97.72
2018-02-15T07:09:29.028Z,96.78
2018-02-15T07:10:29.083Z,96.78
2018-02-15T07:11:29.135Z,96.97
2018-02-15T07:12:29.553Z,97.06
2018-02-15T07:13:29.243Z,96.78
2018-02-15T07:14:29.296Z,96.97
2018-02-15T07:15:29.349Z,97.06
2018-02-15T07:16:29.403Z,97.06
2018-02-15T07:17:29.457Z,97.53
2018-02-15T07:18:29.510Z,97.53
2018-02-15T07:19:29.563Z,97.72
2018-02-15T07:20:29.620Z,97.34
2018-02-15T07:21:29.672Z,97.91
2018-02-15T07:22:29.732Z,97.16
2018-02-15T07:23:29.777Z,97.53
2018-02-15T07:24:29.831Z,97.34
2018-02-15T07:25:29.884Z,97.82
2018-02-15T07:26:30.578Z,97.34
2018-02-15T07:27:30.305Z,97.44
2018-02-15T07:28:30.045Z,97.82
2018-02-15T07:29:30.760Z,97.82
2018-02-15T07:30:30.802Z,97.82
2018-02-15T07:31:30.205Z,98.10
2018-02-15T07:32:30.260Z,98.01
2018-02-15T07:33:30.313Z,98.01
2018-02-15T07:34:30.368Z,97.82
2018-02-15T07:35:30.729Z,97.34
2018-02-15T07:36:30.473Z,97.34
2018-02-15T07:37:30.526Z,96.88
2018-02-15T07:38:30.581Z,96.88
2018-02-15T07:39:30.632Z,97.72
2018-02-15T07:40:30.687Z,97.63
2018-02-15T07:41:30.739Z,98.20
2018-02-15T07:42:30.795Z,98.29
2018-02-15T07:43:30.846Z,99.15
2018-02-15T07:44:30.899Z,98.86
2018-02-15T07:45:30.953Z,98.96
2018-02-15T07:46:31.007Z,98.58
2018-02-15T07:47:31.060Z,98.20
2018-02-15T07:48:31.113Z,98.20
2018-02-15T07:49:31.168Z,98.29
2018-02-15T07:50:31.222Z,97.72
2018-02-15T07:51:31.274Z,98.10
2018-02-15T07:52:31.328Z,97.91
2018-02-15T07:53:31.382Z,98.39
2018-02-15T07:54:31.433Z,98.48
2018-02-15T07:55:31.488Z,98.29
2018-02-15T07:56:31.540Z,98.10
2018-02-15T07:57:31.594Z,98.67
2018-02-15T07:58:31.649Z,98.48
2018-02-15T07:59:31.701Z,98.77
2018-02-15T08:00:31.755Z,98.96
2018-02-15T08:01:31.808Z,98.67
2018-02-15T08:02:31.861Z,98.20
2018-02-15T08:03:31.914Z,98.48
2018-02-15T08:04:31.968Z,98.20
2018-02-15T08:05:32.023Z,98.67
2018-02-15T08:06:32.075Z,98.48
2018-02-15T08:07:32.127Z,98.20
2018-02-15T08:08:32.185Z,98.48
2018-02-15T08:09:32.234Z,98.20
2018-02-15T08:10:32.705Z,98.67
2018-02-15T08:11:32.342Z,98.58
2018-02-15T08:12:32.395Z,98.58
2018-02-15T08:13:32.448Z,98.77
2018-02-15T08:14:32.502Z,99.24
2018-02-15T08:15:32.555Z,99.24
2018-02-15T08:16:32.610Z,99.05
2018-02-15T08:17:32.663Z,98.96
2018-02-15T08:18:32.716Z,98.58
2018-02-15T08:19:32.772Z,98.48
2018-02-15T08:20:32.824Z,98.01
2018-02-15T08:21:32.875Z,98.10
2018-02-15T08:22:32.933Z,97.63
2018-02-15T08:23:32.983Z,97.44
2018-02-15T08:24:33.036Z,97.25
2018-02-15T08:25:33.093Z,97.16
2018-02-15T08:26:33.160Z,97.72
2018-02-15T08:27:33.218Z,97.53
2018-02-15T08:28:33.249Z,98.20
2018-02-15T08:29:33.303Z,97.82
2018-02-15T08:30:33.357Z,98.10
2018-02-15T08:31:33.425Z,97.44
2018-02-15T08:32:33.470Z,97.25
2018-02-15T08:33:34.451Z,97.72
2018-02-15T08:34:33.571Z,97.82
2018-02-15T08:35:33.623Z,98.20
2018-02-15T08:36:33.676Z,97.82
2018-02-15T08:37:33.731Z,98.01
2018-02-15T08:38:33.784Z,97.58
2018-02-15T08:39:34.089Z,98.06
2018-02-15T08:40:33.890Z,97.68
2018-02-15T08:41:33.944Z,98.44
2018-02-15T08:42:34.002Z,97.96
2018-02-15T08:43:34.050Z,97.02
2018-02-15T08:44:34.105Z,98.06
2018-02-15T08:45:34.309Z,97.77
2018-02-15T08:46:34.220Z,97.20
2018-02-15T08:47:34.602Z,98.06
2018-02-15T08:48:34.319Z,98.44
2018-02-15T08:49:34.386Z,97.96
2018-02-15T08:50:34.426Z,98.15
2018-02-15T08:51:34.483Z,97.77
2018-02-15T08:52:34.545Z,97.39
2018-02-15T08:53:34.933Z,97.02
2018-02-15T08:54:34.641Z,97.96
2018-02-15T08:55:35.006Z,96.92
2018-02-15T08:56:34.749Z,97.77
2018-02-15T08:57:35.053Z,97.49
2018-02-15T08:58:34.857Z,97.49
2018-02-15T08:59:34.910Z,97.39
2018-02-15T09:00:34.987Z,96.83
2018-02-15T09:01:35.384Z,96.45
2018-02-15T09:02:35.072Z,96.35
2018-02-15T09:03:35.125Z,96.64
2018-02-15T09:04:35.178Z,97.11
2018-02-15T09:05:35.233Z,97.11
2018-02-15T09:06:35.287Z,97.11
2018-02-15T09:07:35.341Z,96.73
2018-02-15T09:08:35.395Z,97.30
2018-02-15T09:09:35.449Z,97.58
2018-02-15T09:10:35.503Z,97.77
2018-02-15T09:11:35.556Z,97.49
2018-02-15T09:12:35.611Z,97.77
2018-02-15T09:13:36.960Z,97.49
2018-02-15T09:14:44.236Z,96.97
2018-02-15T09:15:36.271Z,96.40
2018-02-15T09:16:36.494Z,95.83
2018-02-15T09:17:35.882Z,96.54
2018-02-15T09:18:35.939Z,96.83
2018-02-15T09:19:35.991Z,97.77
2018-02-15T09:20:36.358Z,97.49
2018-02-15T09:21:36.523Z,96.83
2018-02-15T09:22:36.155Z,97.02
2018-02-15T09:23:36.208Z,97.06
2018-02-15T09:24:36.264Z,97.16
2018-02-15T09:25:36.368Z,96.97
2018-02-15T09:26:36.375Z,96.40
2018-02-15T09:27:36.426Z,96.73
2018-02-15T09:28:36.480Z,96.64
2018-02-15T09:29:36.535Z,97.77
2018-02-15T09:30:36.593Z,97.49
2018-02-15T09:31:36.643Z,97.16
2018-02-15T09:32:36.700Z,97.16
2018-02-15T09:33:36.753Z,97.06
2018-02-15T09:34:36.809Z,97.16
2018-02-15T09:35:36.863Z,97.82
2018-02-15T09:36:36.918Z,97.77
2018-02-15T09:37:36.972Z,97.11
2018-02-15T09:38:37.028Z,98.20
2018-02-15T09:39:37.082Z,97.30
2018-02-15T09:40:37.136Z,98.06
2018-02-15T09:41:37.191Z,97.20
2018-02-15T09:42:37.247Z,97.96
2018-02-15T09:43:37.301Z,98.11
2018-02-15T09:44:37.356Z,98.15
2018-02-15T09:45:37.410Z,98.20
2018-02-15T09:46:37.467Z,98.30
2018-02-15T09:47:37.523Z,98.11
2018-02-15T09:48:37.980Z,97.87
2018-02-15T09:49:37.631Z,97.77
2018-02-15T09:50:37.686Z,97.77
2018-02-15T09:51:37.740Z,98.01
2018-02-15T09:52:37.795Z,98.20
2018-02-15T09:53:37.849Z,98.53
2018-02-15T09:54:38.155Z,98.25
2018-02-15T09:55:37.960Z,97.92
2018-02-15T09:56:38.014Z,97.54
2018-02-15T09:57:38.070Z,97.35
2018-02-15T09:58:38.128Z,97.54
2018-02-15T09:59:38.182Z,98.01
2018-02-15T10:00:38.235Z,97.63
2018-02-15T10:01:38.289Z,98.01
2018-02-15T10:02:38.344Z,97.25
2018-02-15T10:03:38.398Z,97.06
2018-02-15T10:04:38.454Z,96.40
2018-02-15T10:05:38.510Z,95.64
2018-02-15T10:06:38.566Z,95.93
2018-02-15T10:07:38.620Z,95.26
2018-02-15T10:08:38.676Z,94.98
2018-02-15T10:09:38.733Z,95.12
2018-02-15T10:10:38.787Z,95.93
2018-02-15T10:11:38.840Z,96.88
2018-02-15T10:12:38.895Z,96.88
2018-02-15T10:13:38.950Z,97.92
2018-02-15T10:14:39.009Z,97.73
2018-02-15T10:15:39.061Z,97.63
2018-02-15T10:16:39.144Z,97.63
2018-02-15T10:17:39.173Z,97.16
2018-02-15T10:18:39.227Z,98.06
2018-02-15T10:19:39.286Z,98.53
2018-02-15T10:20:39.377Z,98.30
2018-02-15T10:21:39.393Z,98.82
2018-02-15T10:22:39.448Z,98.86
2018-02-15T10:23:39.502Z,98.58
2018-02-15T10:24:39.559Z,99.19
2018-02-15T10:25:39.613Z,99.66
2018-02-15T10:26:40.263Z,99.62
2018-02-15T10:27:39.721Z,99.05
2018-02-15T10:28:39.779Z,98.30
2018-02-15T10:29:39.832Z,98.68
2018-02-15T10:30:39.887Z,98.49
2018-02-15T10:31:39.941Z,98.11
2018-02-15T10:32:39.997Z,97.25
2018-02-15T10:33:40.052Z,97.54
2018-02-15T10:34:40.107Z,97.73
2018-02-15T10:35:40.228Z,96.59
2018-02-15T10:36:40.219Z,96.78
2018-02-15T10:37:40.270Z,96.97
2018-02-15T10:38:40.327Z,97.16
2018-02-15T10:39:40.402Z,96.59
2018-02-15T10:40:40.458Z,96.64
2018-02-15T10:41:40.515Z,96.69
2018-02-15T10:42:40.560Z,97.06
2018-02-15T10:43:40.601Z,97.92
2018-02-15T10:44:40.657Z,97.92
2018-02-15T10:45:40.713Z,98.20
2018-02-15T10:46:41.344Z,98.49
2018-02-15T10:47:41.432Z,98.01
2018-02-15T10:48:40.880Z,97.73
2018-02-15T10:49:40.934Z,98.01
2018-02-15T10:50:40.989Z,98.01
2018-02-15T10:51:41.045Z,97.35
2018-02-15T10:52:41.099Z,98.11
2018-02-15T10:53:41.153Z,98.20
2018-02-15T10:54:41.210Z,98.20
2018-02-15T10:55:41.266Z,97.54
2018-02-15T10:56:41.319Z,97.25
2018-02-15T10:57:41.374Z,98.11
2018-02-15T10:58:41.431Z,98.39
2018-02-15T10:59:41.483Z,98.77
2018-02-15T11:00:41.539Z,98.86
2018-02-15T11:01:41.594Z,99.33
2018-02-15T11:02:41.694Z,98.77
2018-02-15T11:03:41.705Z,98.68
2018-02-15T11:04:41.759Z,98.30
2018-02-15T11:05:41.816Z,98.20
2018-02-15T11:06:41.874Z,97.73
2018-02-15T11:07:41.925Z,98.20
2018-02-15T11:08:41.981Z,97.63
2018-02-15T11:09:42.036Z,96.88
2018-02-15T11:10:42.789Z,96.97
2018-02-15T11:11:42.145Z,97.06
2018-02-15T11:12:42.201Z,97.92
2018-02-15T11:13:42.256Z,98.01
2018-02-15T11:14:42.315Z,97.92
2018-02-15T11:15:42.365Z,98.96
2018-02-15T11:16:42.423Z,99.05
2018-02-15T11:17:42.476Z,99.52
2018-02-15T11:18:42.531Z,99.90
2018-02-15T11:19:42.587Z,99.81
2018-02-15T11:20:42.642Z,99.05
2018-02-15T11:21:42.697Z,99.05
2018-02-15T11:22:42.752Z,99.24
2018-02-15T11:23:42.807Z,99.52
2018-02-15T11:24:42.863Z,99.52
2018-02-15T11:25:42.918Z,99.52
2018-02-15T11:26:42.972Z,99.33
2018-02-15T11:27:43.026Z,99.90
2018-02-15T11:28:43.082Z,99.99
2018-02-15T11:29:43.740Z,99.62
2018-02-15T11:30:43.193Z,99.99
2018-02-15T11:31:43.248Z,99.52
2018-02-15T11:32:43.303Z,99.81
2018-02-15T11:33:43.358Z,99.90
2018-02-15T11:34:43.414Z,99.81
2018-02-15T11:35:43.468Z,99.81
2018-02-15T11:36:43.673Z,99.05
2018-02-15T11:37:43.579Z,98.77
2018-02-15T11:38:43.635Z,98.58
2018-02-15T11:39:43.688Z,98.30
2018-02-15T11:40:43.743Z,98.58
2018-02-15T11:41:43.798Z,98.58
2018-02-15T11:42:43.855Z,98.30
2018-02-15T11:43:43.909Z,98.77
2018-02-15T11:44:43.965Z,98.58
2018-02-15T11:45:44.061Z,98.96
2018-02-15T11:46:44.075Z,98.58
2018-02-15T11:47:44.131Z,98.39
2018-02-15T11:48:44.336Z,98.20
2018-02-15T11:49:44.243Z,98.58
2018-02-15T11:50:44.302Z,98.54
2018-02-15T11:51:44.361Z,98.25
2018-02-15T11:52:44.408Z,98.25
2018-02-15T11:53:44.464Z,98.11
2018-02-15T11:54:44.891Z,98.44
2018-02-15T11:55:44.573Z,98.25
2018-02-15T11:56:44.957Z,98.25
2018-02-15T11:57:44.687Z,98.68
2018-02-15T11:58:45.070Z,98.91
2018-02-15T11:59:45.462Z,98.96
2018-02-15T12:00:44.851Z,99.33
2018-02-15T12:01:44.936Z,99.58
2018-02-15T12:02:44.966Z,99.48
2018-02-15T12:03:45.019Z,99.67
2018-02-15T12:04:45.075Z,99.10
2018-02-15T12:05:45.129Z,99.01
2018-02-15T12:06:45.310Z,98.72
2018-02-15T12:07:45.239Z,98.54
2018-02-15T12:08:45.306Z,99.10
2018-02-15T12:09:45.352Z,98.63
2018-02-15T12:10:45.407Z,99.29
2018-02-15T12:11:45.612Z,98.44
2018-02-15T12:12:45.517Z,98.82
2018-02-15T12:13:45.576Z,98.44
2018-02-15T12:14:45.629Z,97.87
2018-02-15T12:15:45.685Z,97.78
2018-02-15T12:16:45.743Z,98.63
2018-02-15T12:17:45.797Z,98.16
2018-02-15T12:18:45.855Z,97.87
2018-02-15T12:19:45.907Z,98.06
2018-02-15T12:20:45.965Z,98.25
2018-02-15T12:21:46.019Z,97.87
2018-02-15T12:22:46.327Z,97.68
2018-02-15T12:23:46.132Z,98.63
2018-02-15T12:24:46.186Z,98.54
2018-02-15T12:25:46.244Z,98.91
2018-02-15T12:26:46.300Z,99.01
2018-02-15T12:27:46.997Z,99.67
2018-02-15T12:28:46.411Z,99.67
2018-02-15T12:29:46.494Z,99.99
2018-02-15T12:30:46.524Z,99.67
2018-02-15T12:31:46.579Z,99.77
2018-02-15T12:32:46.634Z,99.67
2018-02-15T12:33:46.692Z,99.99
2018-02-15T12:34:46.747Z,99.99
2018-02-15T12:35:46.804Z,99.86
2018-02-15T12:36:46.858Z,99.99
2018-02-15T12:37:46.914Z,99.96
2018-02-15T12:38:46.972Z,99.96
2018-02-15T12:39:47.030Z,99.58
2018-02-15T12:40:47.115Z,99.48
2018-02-15T12:41:47.139Z,99.20
2018-02-15T12:42:47.195Z,99.86
2018-02-15T12:43:47.259Z,99.99
2018-02-15T12:44:47.307Z,99.99
2018-02-15T12:45:47.406Z,99.99
2018-02-15T12:46:47.420Z,99.99
2018-02-15T12:47:47.475Z,99.99
2018-02-15T12:48:47.531Z,99.99
2018-02-15T12:49:47.591Z,99.99
2018-02-15T12:50:47.642Z,99.99
2018-02-15T12:51:47.849Z,99.99
2018-02-15T12:52:47.797Z,99.99